FVMV

Masvingo International Airport

Masvingo, Zimbabwe
METAR FVMV 161200Z 15013KT 9999 SCT045 BKN300 26/16 Q1020 NOSIG
Observed Flight Rules
Dec-16 @ 12:00 UTC (18 hours ago) Visual Flight Rules
Wind Visibility Clouds
150° at 13 knots 10,000+ meters
  • Scattered at 4,500' AGL
  • Broken at 30,000' AGL
Temperatures Readings
Current 26°C / 79°F
Dewpoint 16°C / 61°F
Humidity 54%
Altimeter 30.12" Hg
Pressure 1020 hPa
Elevation 1095
METAR FVMV 161200Z 15013KT 9999 SCT045 BKN300 26/16 Q1020 NOSIG
Observed Flight Rules
Dec-16 @ 12:00 UTC
(18 hours ago)
VFR
Wind Visibility
150° at 13 knots 10,000+ meters
Clouds
  • Scattered at 4,500' AGL
  • Broken at 30,000' AGL
Temperature Dewpoint
26°C / 79°F 16°C / 61°F
Humidity Altimeter Pressure
54% 30.12" Hg 1020 hPa